createdAt,value
2022-12-09T00:00:45.650Z,99746.81
2022-12-09T00:02:48.761Z,99752.97
2022-12-09T00:04:51.885Z,99742.66
2022-12-09T00:06:54.934Z,99744.38
2022-12-09T00:08:59.689Z,99742.56
2022-12-09T00:11:03.481Z,99745.97
2022-12-09T00:13:06.434Z,99751.97
2022-12-09T00:15:10.146Z,99746.81
2022-12-09T00:17:13.439Z,99741.59
2022-12-09T00:19:16.821Z,99743.38
2022-12-09T00:21:22.167Z,99746.75
2022-12-09T00:23:25.178Z,99739.84
2022-12-09T00:25:29.753Z,99740.72
2022-12-09T00:27:32.551Z,99738.03
2022-12-09T00:29:36.058Z,99732.94
2022-12-09T00:31:40.080Z,99732.81
2022-12-09T00:33:43.433Z,99737.88
2022-12-09T00:35:46.543Z,99742.13
2022-12-09T00:37:49.525Z,99732.72
2022-12-09T00:39:52.445Z,99731.84
2022-12-09T00:41:56.742Z,99730.88
2022-12-09T00:44:00.433Z,99724.78
2022-12-09T00:46:03.494Z,99724.72
2022-12-09T00:48:06.843Z,99731.53
2022-12-09T00:50:10.963Z,99720.22
2022-12-09T00:52:14.058Z,99723.53
2022-12-09T00:54:16.981Z,99722.69
2022-12-09T00:56:19.880Z,99719.16
2022-12-09T00:58:24.450Z,99720.78
2022-12-09T01:00:27.706Z,99724.09
2022-12-09T01:02:30.705Z,99723.28
2022-12-09T01:04:33.826Z,99717.22
2022-12-09T01:06:36.765Z,99719.72
2022-12-09T01:08:40.372Z,99720.53
2022-12-09T01:10:44.783Z,99724.66
2022-12-09T01:12:47.982Z,99723.91
2022-12-09T01:14:52.400Z,99728.28
2022-12-09T01:16:55.915Z,99731.72
2022-12-09T01:19:00.544Z,99729.16
2022-12-09T01:21:03.478Z,99733.31
2022-12-09T01:23:06.501Z,99722.94
2022-12-09T01:25:10.105Z,99725.47
2022-12-09T01:27:13.146Z,99729.63
2022-12-09T01:29:17.497Z,99727.00
2022-12-09T01:31:23.564Z,99726.00
2022-12-09T01:33:26.818Z,99724.97
2022-12-09T01:35:31.029Z,99723.13
2022-12-09T01:37:34.319Z,99730.88
2022-12-09T01:39:37.931Z,99732.41
2022-12-09T01:41:41.130Z,99732.38
2022-12-09T01:43:45.280Z,99727.91
2022-12-09T01:45:49.208Z,99728.78
2022-12-09T01:47:58.039Z,99730.44
2022-12-09T01:50:02.241Z,99730.34
2022-12-09T01:52:10.982Z,99726.13
2022-12-09T01:54:15.008Z,99722.59
2022-12-09T01:56:23.586Z,99727.72
2022-12-09T01:58:27.810Z,99719.81
2022-12-09T02:00:30.951Z,99724.03
2022-12-09T02:02:38.002Z,99722.28
2022-12-09T02:04:46.101Z,99715.34
2022-12-09T02:06:49.630Z,99714.44
2022-12-09T02:08:56.362Z,99715.25
2022-12-09T02:11:09.033Z,99704.06
2022-12-09T02:13:26.396Z,99706.53
2022-12-09T02:15:35.984Z,99711.41
2022-12-09T02:17:42.036Z,99707.88
2022-12-09T02:20:01.497Z,99704.44
2022-12-09T02:22:05.218Z,99710.25
2022-12-09T02:24:16.554Z,99700.84
2022-12-09T02:26:28.377Z,99704.31
2022-12-09T02:29:02.089Z,99695.72
2022-12-09T02:31:23.290Z,99694.84
2022-12-09T02:33:41.600Z,99693.09
2022-12-09T02:35:54.499Z,99689.72
2022-12-09T02:38:04.259Z,99689.72
2022-12-09T02:40:13.143Z,99681.97
2022-12-09T02:42:22.263Z,99684.47
2022-12-09T02:44:26.800Z,99686.22
2022-12-09T02:46:51.093Z,99681.97
2022-12-09T02:48:57.902Z,99672.50
2022-12-09T02:51:05.070Z,99671.75
2022-12-09T02:53:12.519Z,99670.81
2022-12-09T02:55:18.497Z,99665.66
2022-12-09T02:57:25.318Z,99659.69
2022-12-09T02:59:28.377Z,99664.75
2022-12-09T03:01:37.806Z,99658.81
2022-12-09T03:03:41.192Z,99660.44
2022-12-09T03:05:52.042Z,99654.41
2022-12-09T03:08:09.448Z,99652.66
2022-12-09T03:10:18.913Z,99651.75
2022-12-09T03:12:23.352Z,99645.66
2022-12-09T03:14:30.888Z,99647.22
2022-12-09T03:16:36.946Z,99638.53
2022-12-09T03:18:46.015Z,99640.19
2022-12-09T03:20:51.301Z,99639.28
2022-12-09T03:22:55.956Z,99633.31
2022-12-09T03:25:05.799Z,99634.91
2022-12-09T03:27:12.764Z,99628.94
2022-12-09T03:29:19.866Z,99624.59
2022-12-09T03:31:26.345Z,99622.00
2022-12-09T03:33:30.877Z,99617.69
2022-12-09T03:35:36.903Z,99623.63
2022-12-09T03:37:42.905Z,99620.16
2022-12-09T03:39:47.620Z,99622.72
2022-12-09T03:41:56.296Z,99622.72
2022-12-09T03:44:02.836Z,99621.91
2022-12-09T03:46:06.389Z,99621.00
2022-12-09T03:48:10.932Z,99620.97
2022-12-09T03:50:15.049Z,99622.56
2022-12-09T03:52:22.354Z,99620.81
2022-12-09T03:54:29.711Z,99613.94
2022-12-09T03:56:37.307Z,99622.38
2022-12-09T03:58:45.235Z,99620.66
2022-12-09T04:00:49.153Z,99618.97
2022-12-09T04:02:52.657Z,99621.47
2022-12-09T04:04:56.161Z,99623.13
2022-12-09T04:06:59.446Z,99624.59
2022-12-09T04:09:03.210Z,99625.22
2022-12-09T04:11:06.341Z,99620.91
2022-12-09T04:13:09.237Z,99628.66
2022-12-09T04:15:13.495Z,99622.59
2022-12-09T04:17:17.165Z,99620.75
2022-12-09T04:19:20.042Z,99618.09
2022-12-09T04:21:23.395Z,99613.78
2022-12-09T04:23:26.760Z,99615.53
2022-12-09T04:25:29.752Z,99616.34
2022-12-09T04:27:32.654Z,99620.59
2022-12-09T04:29:35.738Z,99608.63
2022-12-09T04:31:40.548Z,99617.28
2022-12-09T04:33:45.048Z,99617.06
2022-12-09T04:35:48.257Z,99613.66
2022-12-09T04:37:51.081Z,99610.09
2022-12-09T04:39:54.093Z,99610.00
2022-12-09T04:41:57.008Z,99610.91
2022-12-09T04:44:00.041Z,99600.69
2022-12-09T04:46:04.676Z,99604.16
2022-12-09T04:48:09.333Z,99604.31
2022-12-09T04:50:13.621Z,99592.50
2022-12-09T04:52:17.894Z,99593.16
2022-12-09T04:54:21.031Z,99594.09
2022-12-09T04:56:23.923Z,99585.50
2022-12-09T04:58:26.779Z,99584.75
2022-12-09T05:00:30.697Z,99585.66
2022-12-09T05:02:34.077Z,99572.88
2022-12-09T05:04:38.735Z,99580.63
2022-12-09T05:06:41.783Z,99570.59
2022-12-09T05:08:45.268Z,99569.97
2022-12-09T05:10:50.010Z,99554.00
2022-12-09T05:12:53.392Z,99560.31
2022-12-09T05:14:56.405Z,99556.00
2022-12-09T05:16:59.517Z,99555.06
2022-12-09T05:19:02.557Z,99555.19
2022-12-09T05:21:08.655Z,99551.72
2022-12-09T05:23:11.520Z,99550.78
2022-12-09T05:25:15.060Z,99554.09
2022-12-09T05:27:18.429Z,99554.06
2022-12-09T05:29:23.524Z,99551.41
2022-12-09T05:31:26.864Z,99550.50
2022-12-09T05:33:30.443Z,99551.34
2022-12-09T05:35:38.331Z,99547.03
2022-12-09T05:37:46.981Z,99548.50
2022-12-09T05:39:49.877Z,99551.00
2022-12-09T05:41:52.840Z,99555.31
2022-12-09T05:43:56.054Z,99556.22
2022-12-09T05:45:59.571Z,99557.81
2022-12-09T05:48:02.567Z,99554.41
2022-12-09T05:50:08.667Z,99551.84
2022-12-09T05:52:14.523Z,99549.88
2022-12-09T05:54:18.872Z,99549.00
2022-12-09T05:56:24.332Z,99544.41
2022-12-09T05:58:27.677Z,99535.34
2022-12-09T06:00:31.428Z,99529.19
2022-12-09T06:02:34.756Z,99527.97
2022-12-09T06:04:38.395Z,99531.66
2022-12-09T06:06:41.520Z,99537.47
2022-12-09T06:08:45.952Z,99533.97
2022-12-09T06:10:51.095Z,99533.91
2022-12-09T06:12:55.438Z,99531.44
2022-12-09T06:14:58.438Z,99529.34
2022-12-09T06:17:01.903Z,99534.94
2022-12-09T06:19:05.933Z,99538.03
2022-12-09T06:21:10.849Z,99535.28
2022-12-09T06:23:13.762Z,99541.03
2022-12-09T06:25:16.857Z,99533.13
2022-12-09T06:27:21.255Z,99546.56
2022-12-09T06:29:24.160Z,99535.22
2022-12-09T06:31:28.994Z,99537.69
2022-12-09T06:35:55.610Z,99536.53
2022-12-09T06:37:59.266Z,99546.72
2022-12-09T06:40:02.585Z,99545.06
2022-12-09T06:42:06.221Z,99545.84
2022-12-09T06:44:12.792Z,99546.72
2022-12-09T06:46:20.345Z,99538.91
2022-12-09T06:48:23.671Z,99540.53
2022-12-09T06:50:27.212Z,99537.13
2022-12-09T06:52:30.592Z,99536.25
2022-12-09T06:54:33.507Z,99542.19
2022-12-09T06:56:36.837Z,99548.91
2022-12-09T06:58:40.579Z,99535.88
2022-12-09T07:00:45.206Z,99536.63
2022-12-09T07:02:48.910Z,99533.22
2022-12-09T07:04:54.299Z,99546.06
2022-12-09T07:07:20.236Z,99545.38
2022-12-09T07:09:23.777Z,99544.16
2022-12-09T07:11:27.214Z,99540.75
2022-12-09T07:13:30.713Z,99542.59
2022-12-09T07:15:33.953Z,99540.91
2022-12-09T07:17:38.564Z,99547.06
2022-12-09T07:19:41.678Z,99542.75
2022-12-09T07:21:44.961Z,99547.81
2022-12-09T07:23:48.672Z,99545.38
2022-12-09T07:25:57.828Z,99539.22
2022-12-09T07:28:00.773Z,99535.72
2022-12-09T07:30:04.138Z,99537.47
2022-12-09T07:32:07.763Z,99538.28
2022-12-09T07:34:12.737Z,99527.97
2022-12-09T07:36:20.699Z,99528.03
2022-12-09T07:38:25.073Z,99527.28
2022-12-09T07:40:28.110Z,99527.31
2022-12-09T07:42:31.281Z,99521.38
2022-12-09T07:44:39.376Z,99523.16
2022-12-09T07:46:42.284Z,99519.03
2022-12-09T07:48:46.512Z,99530.38
2022-12-09T07:50:50.841Z,99532.19
2022-12-09T07:52:53.795Z,99528.03
2022-12-09T07:54:59.354Z,99524.66
2022-12-09T07:57:02.359Z,99529.09
2022-12-09T07:59:08.457Z,99519.06
2022-12-09T08:01:14.089Z,99523.41
2022-12-09T08:03:17.168Z,99527.84
2022-12-09T08:05:20.829Z,99522.06
2022-12-09T08:07:25.707Z,99518.78
2022-12-09T08:09:29.335Z,99522.28
2022-12-09T08:11:34.169Z,99524.03
2022-12-09T08:13:37.912Z,99517.38
2022-12-09T08:15:40.837Z,99517.50
2022-12-09T08:17:44.259Z,99521.06
2022-12-09T08:19:48.719Z,99514.22
2022-12-09T08:21:54.738Z,99515.09
2022-12-09T08:24:01.701Z,99514.22
2022-12-09T08:26:05.357Z,99516.84
2022-12-09T08:28:08.667Z,99516.16
2022-12-09T08:30:12.794Z,99522.38
2022-12-09T08:32:18.779Z,99518.41
2022-12-09T08:34:22.264Z,99520.88
2022-12-09T08:36:27.378Z,99513.13
2022-12-09T08:38:31.954Z,99519.91
2022-12-09T08:40:37.475Z,99513.75
2022-12-09T08:42:40.562Z,99512.25
2022-12-09T08:44:43.570Z,99511.50
2022-12-09T08:46:49.314Z,99511.63
2022-12-09T08:48:52.922Z,99514.97
2022-12-09T08:50:56.149Z,99499.56
2022-12-09T08:52:59.691Z,99502.84
2022-12-09T08:55:02.892Z,99499.66
2022-12-09T08:57:07.094Z,99500.63
2022-12-09T08:59:10.386Z,99497.31
2022-12-09T09:01:17.286Z,99504.28
2022-12-09T09:03:20.724Z,99500.00
2022-12-09T09:05:23.939Z,99495.78
2022-12-09T09:07:27.164Z,99492.28
2022-12-09T09:09:30.637Z,99493.47
2022-12-09T09:11:34.434Z,99491.03
2022-12-09T09:13:39.236Z,99488.59
2022-12-09T09:15:42.277Z,99495.41
2022-12-09T09:17:51.281Z,99497.16
2022-12-09T09:19:55.170Z,99493.72
2022-12-09T09:21:58.546Z,99498.88
2022-12-09T09:24:02.222Z,99495.44
2022-12-09T09:26:05.776Z,99493.66
2022-12-09T09:28:08.840Z,99492.38
2022-12-09T09:30:13.612Z,99489.84
2022-12-09T09:32:17.349Z,99493.09
2022-12-09T09:34:20.849Z,99487.81
2022-12-09T09:36:25.786Z,99492.34
2022-12-09T09:38:29.538Z,99490.94
2022-12-09T09:40:34.629Z,99494.56
2022-12-09T09:42:46.534Z,99495.56
2022-12-09T09:44:51.559Z,99493.19
2022-12-09T09:46:57.751Z,99485.72
2022-12-09T09:49:02.576Z,99476.91
2022-12-09T09:51:11.785Z,99474.59
2022-12-09T09:53:20.861Z,99482.25
2022-12-09T09:55:32.453Z,99478.97
2022-12-09T09:57:43.156Z,99473.84
2022-12-09T10:00:08.422Z,99472.09
2022-12-09T10:02:32.207Z,99466.91
2022-12-09T10:04:45.280Z,99468.72
2022-12-09T10:06:59.175Z,99455.84
2022-12-09T10:09:15.150Z,99459.44
2022-12-09T10:11:22.160Z,99461.41
2022-12-09T10:13:42.263Z,99454.72
2022-12-09T10:15:53.849Z,99459.00
2022-12-09T10:18:06.293Z,99451.16
2022-12-09T10:20:15.532Z,99450.47
2022-12-09T10:22:22.204Z,99445.69
2022-12-09T10:24:32.889Z,99439.63
2022-12-09T10:26:40.051Z,99443.03
2022-12-09T10:28:47.140Z,99431.06
2022-12-09T10:30:51.147Z,99442.28
2022-12-09T10:32:55.516Z,99441.44
2022-12-09T10:35:00.735Z,99437.22
2022-12-09T10:37:04.526Z,99435.41
2022-12-09T10:39:07.484Z,99426.88
2022-12-09T10:41:38.836Z,99434.81
2022-12-09T10:43:42.519Z,99437.03
2022-12-09T10:48:21.939Z,99426.06
2022-12-09T10:50:31.717Z,99432.53
2022-12-09T10:52:44.471Z,99432.41
2022-12-09T10:54:49.608Z,99430.59
2022-12-09T10:57:09.689Z,99428.91
2022-12-09T10:59:20.336Z,99429.81
2022-12-09T11:01:23.718Z,99426.47
2022-12-09T11:03:29.678Z,99430.56
2022-12-09T11:05:34.807Z,99425.84
2022-12-09T11:07:38.580Z,99420.69
2022-12-09T11:09:45.077Z,99420.44
2022-12-09T11:11:51.223Z,99415.28
2022-12-09T11:13:54.717Z,99417.06
2022-12-09T11:16:01.578Z,99410.22
2022-12-09T11:18:09.588Z,99416.97
2022-12-09T11:20:22.570Z,99420.28
2022-12-09T11:22:32.687Z,99411.88
2022-12-09T11:24:36.975Z,99408.75
2022-12-09T11:26:41.331Z,99408.97
2022-12-09T11:28:44.721Z,99400.41
2022-12-09T11:31:27.056Z,99409.03
2022-12-09T11:33:26.368Z,99406.81
2022-12-09T11:35:38.218Z,99408.22
2022-12-09T11:37:42.607Z,99402.28
2022-12-09T11:39:50.486Z,99398.25
2022-12-09T11:42:17.644Z,99401.72
2022-12-09T11:44:27.388Z,99400.69
2022-12-09T11:46:33.167Z,99396.66
2022-12-09T11:48:43.320Z,99390.25
2022-12-09T11:50:51.267Z,99397.09
2022-12-09T11:53:09.967Z,99390.38
2022-12-09T11:55:20.847Z,99386.13
2022-12-09T11:57:33.748Z,99380.16
2022-12-09T11:59:42.934Z,99379.50
2022-12-09T12:01:51.215Z,99383.81
2022-12-09T12:03:57.732Z,99385.56
2022-12-09T12:06:03.713Z,99387.22
2022-12-09T12:08:19.386Z,99381.22
2022-12-09T12:10:27.319Z,99383.84
2022-12-09T12:12:40.063Z,99379.41
2022-12-09T12:14:45.283Z,99375.38
2022-12-09T12:16:55.447Z,99379.06
2022-12-09T12:19:04.167Z,99376.31
2022-12-09T12:21:35.227Z,99377.09
2022-12-09T12:24:23.130Z,99381.59
2022-12-09T12:26:32.942Z,99376.44
2022-12-09T12:28:57.296Z,99379.81
2022-12-09T12:31:15.426Z,99375.44
2022-12-09T12:36:18.908Z,99374.88
2022-12-09T12:38:32.029Z,99372.53
2022-12-09T12:40:44.235Z,99367.38
2022-12-09T12:43:18.303Z,99376.00
2022-12-09T12:45:49.096Z,99373.69
2022-12-09T12:48:02.902Z,99371.72
2022-12-09T12:50:33.173Z,99380.47
2022-12-09T12:52:55.953Z,99377.13
2022-12-09T12:55:12.152Z,99374.44
2022-12-09T12:57:23.840Z,99378.72
2022-12-09T12:59:35.243Z,99370.06
2022-12-09T13:01:47.552Z,99374.22
2022-12-09T13:03:58.722Z,99369.78
2022-12-09T13:06:02.923Z,99368.13
2022-12-09T13:08:10.468Z,99374.16
2022-12-09T13:10:20.321Z,99372.56
2022-12-09T13:12:42.264Z,99376.75
2022-12-09T13:14:52.505Z,99364.72
2022-12-09T13:16:55.623Z,99367.91
2022-12-09T13:19:06.378Z,99356.88
2022-12-09T13:21:10.764Z,99364.72
2022-12-09T13:23:23.332Z,99365.34
2022-12-09T13:25:34.715Z,99360.78
2022-12-09T13:27:45.405Z,99358.31
2022-12-09T13:29:57.350Z,99354.91
2022-12-09T13:32:07.911Z,99356.56
2022-12-09T13:34:23.793Z,99358.09
2022-12-09T13:36:37.361Z,99348.91
2022-12-09T13:38:42.618Z,99353.31
2022-12-09T13:40:45.724Z,99357.47
2022-12-09T13:43:01.329Z,99355.91
2022-12-09T13:45:07.471Z,99358.19
2022-12-09T13:47:29.160Z,99353.97
2022-12-09T13:49:32.378Z,99353.81
2022-12-09T13:51:45.833Z,99354.09
2022-12-09T13:53:53.656Z,99350.63
2022-12-09T13:55:58.638Z,99355.09
2022-12-09T13:58:15.002Z,99350.63
2022-12-09T14:00:19.686Z,99347.91
2022-12-09T14:02:29.658Z,99352.22
2022-12-09T14:04:36.569Z,99354.97
2022-12-09T14:06:48.723Z,99355.84
2022-12-09T14:08:55.698Z,99353.00
2022-12-09T14:10:59.258Z,99345.28
2022-12-09T14:13:18.650Z,99353.31
2022-12-09T14:15:39.410Z,99356.44
2022-12-09T14:18:04.122Z,99352.28
2022-12-09T14:20:20.256Z,99355.50
2022-12-09T14:23:03.067Z,99359.72
2022-12-09T14:25:49.659Z,99352.25
2022-12-09T14:28:36.473Z,99357.31
2022-12-09T14:30:50.344Z,99355.63
2022-12-09T14:32:55.024Z,99366.66
2022-12-09T14:35:08.499Z,99371.06
2022-12-09T14:37:46.621Z,99368.94
2022-12-09T14:39:54.551Z,99372.31
2022-12-09T14:42:02.568Z,99377.84
2022-12-09T14:44:23.156Z,99376.53
2022-12-09T14:46:32.965Z,99377.56
2022-12-09T14:48:39.328Z,99374.75
2022-12-09T14:50:42.193Z,99382.31
2022-12-09T14:52:53.597Z,99393.41
2022-12-09T14:54:58.659Z,99384.91
2022-12-09T14:57:03.124Z,99393.31
2022-12-09T14:59:09.772Z,99389.94
2022-12-09T15:01:12.500Z,99390.78
2022-12-09T15:03:42.911Z,99398.38
2022-12-09T15:05:54.825Z,99400.13
2022-12-09T15:07:57.868Z,99403.31
2022-12-09T15:10:02.906Z,99409.16
2022-12-09T15:12:11.430Z,99405.06
2022-12-09T15:14:28.231Z,99411.91
2022-12-09T15:16:31.107Z,99417.66
2022-12-09T15:18:36.729Z,99415.22
2022-12-09T15:20:41.546Z,99417.75
2022-12-09T15:22:52.831Z,99412.38
2022-12-09T15:24:56.021Z,99420.44
2022-12-09T15:27:01.347Z,99418.53
2022-12-09T15:29:06.419Z,99418.50
2022-12-09T15:31:19.071Z,99426.25
2022-12-09T15:33:21.961Z,99418.81
2022-12-09T15:35:27.064Z,99420.81
2022-12-09T15:37:30.067Z,99422.34
2022-12-09T15:39:39.092Z,99420.47
2022-12-09T15:42:02.413Z,99435.25
2022-12-09T15:44:09.127Z,99426.63
2022-12-09T15:46:13.185Z,99426.25
2022-12-09T15:48:22.028Z,99430.91
2022-12-09T15:50:28.144Z,99434.34
2022-12-09T15:52:35.877Z,99435.75
2022-12-09T15:54:43.606Z,99438.22
2022-12-09T15:56:52.568Z,99436.44
2022-12-09T15:59:01.327Z,99439.13
2022-12-09T16:01:04.614Z,99442.69
2022-12-09T16:03:08.256Z,99441.06
2022-12-09T16:05:13.020Z,99441.00
2022-12-09T16:07:20.331Z,99441.22
2022-12-09T16:09:23.729Z,99435.94
2022-12-09T16:11:37.162Z,99432.44
2022-12-09T16:13:57.943Z,99434.09
2022-12-09T16:16:02.698Z,99434.03
2022-12-09T16:18:06.061Z,99438.22
2022-12-09T16:20:35.555Z,99436.66
2022-12-09T16:22:40.332Z,99431.56
2022-12-09T16:27:09.533Z,99435.84
2022-12-09T16:29:22.795Z,99437.56
2022-12-09T16:31:25.988Z,99434.22
2022-12-09T16:33:31.705Z,99435.84
2022-12-09T16:35:39.142Z,99438.41
2022-12-09T16:37:44.419Z,99442.69
2022-12-09T16:39:47.192Z,99434.88
2022-12-09T16:42:00.692Z,99431.53
2022-12-09T16:44:03.554Z,99439.03
2022-12-09T16:46:34.376Z,99439.03
2022-12-09T16:48:37.349Z,99438.97
2022-12-09T16:50:47.151Z,99434.72
2022-12-09T16:52:50.581Z,99441.56
2022-12-09T16:54:53.417Z,99439.03
2022-12-09T16:56:57.037Z,99446.00
2022-12-09T16:59:00.173Z,99439.31
2022-12-09T17:01:04.870Z,99446.06
2022-12-09T17:03:14.313Z,99447.38
2022-12-09T17:05:17.449Z,99442.16
2022-12-09T17:07:22.773Z,99444.69
2022-12-09T17:09:25.720Z,99447.44
2022-12-09T17:11:29.089Z,99443.03
2022-12-09T17:13:32.009Z,99443.06
2022-12-09T17:15:34.811Z,99441.53
2022-12-09T17:17:38.102Z,99444.91
2022-12-09T17:19:41.727Z,99450.81
2022-12-09T17:21:44.571Z,99447.44
2022-12-09T17:23:49.240Z,99447.50
2022-12-09T17:25:57.001Z,99451.41
2022-12-09T17:28:02.190Z,99459.22
2022-12-09T17:30:06.224Z,99455.97
2022-12-09T17:32:09.175Z,99454.03
2022-12-09T17:34:12.274Z,99465.63
2022-12-09T17:36:16.617Z,99467.53
2022-12-09T17:38:20.047Z,99466.41
2022-12-09T17:40:24.440Z,99469.06
2022-12-09T17:42:27.410Z,99468.34
2022-12-09T17:44:30.261Z,99466.59
2022-12-09T17:46:33.291Z,99468.56
2022-12-09T17:48:41.940Z,99474.50
2022-12-09T17:50:45.312Z,99479.75
2022-12-09T17:52:48.149Z,99471.22
2022-12-09T17:54:50.885Z,99472.09
2022-12-09T17:56:55.072Z,99479.66
2022-12-09T17:59:00.914Z,99474.41
2022-12-09T18:01:04.582Z,99475.34
2022-12-09T18:03:11.188Z,99485.75
2022-12-09T18:05:17.260Z,99485.59
2022-12-09T18:07:20.274Z,99484.00
2022-12-09T18:09:23.445Z,99486.91
2022-12-09T18:11:26.279Z,99489.75
2022-12-09T18:13:30.437Z,99491.25
2022-12-09T18:15:37.095Z,99485.75
2022-12-09T18:17:40.054Z,99492.53
2022-12-09T18:19:42.875Z,99488.91
2022-12-09T18:21:46.129Z,99485.59
2022-12-09T18:23:49.385Z,99483.13
2022-12-09T18:25:52.116Z,99484.69
2022-12-09T18:27:55.045Z,99486.19
2022-12-09T18:29:59.284Z,99478.25
2022-12-09T18:32:02.162Z,99488.63
2022-12-09T18:34:05.317Z,99485.13
2022-12-09T18:36:08.844Z,99493.16
2022-12-09T18:38:12.987Z,99503.28
2022-12-09T18:40:21.018Z,99495.81
2022-12-09T18:42:23.808Z,99492.91
2022-12-09T18:44:26.680Z,99501.50
2022-12-09T18:46:33.712Z,99497.41
2022-12-09T18:48:37.146Z,99501.50
2022-12-09T18:50:39.995Z,99500.50
2022-12-09T18:52:43.557Z,99496.31
2022-12-09T18:54:47.661Z,99506.78
2022-12-09T18:56:50.913Z,99507.69
2022-12-09T18:59:09.737Z,99512.22
2022-12-09T19:01:17.617Z,99508.34
2022-12-09T19:03:21.756Z,99510.91
2022-12-09T19:05:26.208Z,99516.88
2022-12-09T19:07:32.325Z,99517.03
2022-12-09T19:09:36.313Z,99521.09
2022-12-09T19:11:40.702Z,99520.19
2022-12-09T19:13:43.540Z,99516.88
2022-12-09T19:15:46.374Z,99520.09
2022-12-09T19:17:49.198Z,99521.09
2022-12-09T19:19:53.320Z,99526.31
2022-12-09T19:21:56.267Z,99522.00
2022-12-09T19:24:00.406Z,99521.78
2022-12-09T19:26:03.259Z,99525.31
2022-12-09T19:28:06.351Z,99519.31
2022-12-09T19:30:10.369Z,99523.16
2022-12-09T19:32:36.528Z,99522.50
2022-12-09T19:34:36.394Z,99517.41
2022-12-09T19:36:41.034Z,99526.59
2022-12-09T19:38:44.018Z,99523.72
2022-12-09T19:40:46.865Z,99530.09
2022-12-09T19:42:49.719Z,99524.72
2022-12-09T19:45:01.406Z,99517.00
2022-12-09T19:47:08.628Z,99529.97
2022-12-09T19:49:14.027Z,99530.94
2022-12-09T19:51:18.563Z,99532.88
2022-12-09T19:53:22.783Z,99534.44
2022-12-09T19:55:25.607Z,99528.88
2022-12-09T19:57:28.446Z,99530.00
2022-12-09T19:59:31.404Z,99532.41
2022-12-09T20:01:36.008Z,99536.91
2022-12-09T20:03:40.275Z,99532.38
2022-12-09T20:05:49.694Z,99535.84
2022-12-09T20:07:53.950Z,99543.47
2022-12-09T20:09:58.153Z,99540.94
2022-12-09T20:12:01.009Z,99547.78
2022-12-09T20:14:07.442Z,99540.03
2022-12-09T20:16:13.062Z,99542.69
2022-12-09T20:18:15.938Z,99549.06
2022-12-09T20:20:18.963Z,99544.59
2022-12-09T20:22:21.721Z,99550.59
2022-12-09T20:24:24.469Z,99548.69
2022-12-09T20:26:30.742Z,99548.44
2022-12-09T20:28:34.085Z,99549.47
2022-12-09T20:30:36.929Z,99551.25
2022-12-09T20:32:39.808Z,99556.69
2022-12-09T20:34:42.674Z,99554.19
2022-12-09T20:36:46.655Z,99554.63
2022-12-09T20:38:51.097Z,99569.53
2022-12-09T20:40:53.963Z,99561.56
2022-12-09T20:42:58.798Z,99558.50
2022-12-09T20:45:01.703Z,99559.84
2022-12-09T20:47:04.753Z,99561.88
2022-12-09T20:49:07.686Z,99568.69
2022-12-09T20:51:13.926Z,99568.84
2022-12-09T20:53:16.705Z,99570.13
2022-12-09T20:55:20.519Z,99568.56
2022-12-09T20:57:23.346Z,99572.69
2022-12-09T20:59:27.614Z,99575.47
2022-12-09T21:01:32.290Z,99576.34
2022-12-09T21:03:35.262Z,99584.19
2022-12-09T21:05:38.287Z,99573.63
2022-12-09T21:07:41.172Z,99578.09
2022-12-09T21:09:44.765Z,99571.47
2022-12-09T21:11:48.319Z,99580.66
2022-12-09T21:13:52.800Z,99583.13
2022-12-09T21:16:03.694Z,99583.31
2022-12-09T21:18:06.759Z,99580.31
2022-12-09T21:20:10.997Z,99585.41
2022-12-09T21:22:14.174Z,99579.38
2022-12-09T21:24:17.816Z,99576.03
2022-12-09T21:26:22.381Z,99582.13
2022-12-09T21:28:27.079Z,99579.28
2022-12-09T21:30:29.970Z,99576.84
2022-12-09T21:32:34.333Z,99582.69
2022-12-09T21:34:37.226Z,99581.13
2022-12-09T21:36:42.553Z,99580.88
2022-12-09T21:38:45.494Z,99583.34
2022-12-09T21:40:49.204Z,99580.63
2022-12-09T21:42:52.025Z,99586.03
2022-12-09T21:44:55.469Z,99579.13
2022-12-09T21:46:58.431Z,99590.84
2022-12-09T21:49:05.193Z,99588.34
2022-12-09T21:51:08.839Z,99589.41
2022-12-09T21:53:12.108Z,99578.19
2022-12-09T21:55:15.175Z,99578.78
2022-12-09T21:57:18.119Z,99575.00
2022-12-09T21:59:20.980Z,99586.22
2022-12-09T22:01:26.946Z,99581.72
2022-12-09T22:03:29.909Z,99583.88
2022-12-09T22:05:34.698Z,99577.22
2022-12-09T22:07:37.622Z,99587.25
2022-12-09T22:09:40.492Z,99578.56
2022-12-09T22:11:43.559Z,99587.03
2022-12-09T22:13:47.057Z,99587.97
2022-12-09T22:15:49.966Z,99584.69
2022-12-09T22:17:52.870Z,99589.28
2022-12-09T22:20:22.582Z,99585.44
2022-12-09T22:22:20.262Z,99593.81
2022-12-09T22:24:23.279Z,99594.63
2022-12-09T22:26:26.879Z,99593.22
2022-12-09T22:28:29.885Z,99602.59
2022-12-09T22:30:32.757Z,99603.41
2022-12-09T22:32:40.874Z,99605.97
2022-12-09T22:34:44.920Z,99599.94
2022-12-09T22:36:49.176Z,99604.31
2022-12-09T22:38:54.541Z,99601.03
2022-12-09T22:40:57.316Z,99603.69
2022-12-09T22:43:00.162Z,99605.19
2022-12-09T22:45:02.970Z,99609.53
2022-12-09T22:47:07.570Z,99608.63
2022-12-09T22:49:13.409Z,99614.56
2022-12-09T22:51:18.756Z,99618.00
2022-12-09T22:53:22.469Z,99615.41
2022-12-09T22:55:26.645Z,99610.88
2022-12-09T22:57:29.409Z,99609.06
2022-12-09T22:59:32.211Z,99614.56
2022-12-09T23:01:37.230Z,99615.31
2022-12-09T23:03:40.712Z,99605.13
2022-12-09T23:05:43.671Z,99615.50
2022-12-09T23:07:46.928Z,99608.50
2022-12-09T23:09:50.276Z,99609.53
2022-12-09T23:11:54.649Z,99610.47
2022-12-09T23:14:00.322Z,99612.88
2022-12-09T23:16:05.336Z,99613.91
2022-12-09T23:18:08.398Z,99614.22
2022-12-09T23:20:12.293Z,99607.34
2022-12-09T23:22:15.180Z,99608.19
2022-12-09T23:24:24.735Z,99612.66
2022-12-09T23:26:30.353Z,99608.41
2022-12-09T23:28:36.948Z,99609.09
2022-12-09T23:30:39.782Z,99619.09
2022-12-09T23:32:42.650Z,99612.94
2022-12-09T23:34:45.472Z,99609.78
2022-12-09T23:36:48.542Z,99619.38
2022-12-09T23:38:53.128Z,99613.84
2022-12-09T23:40:55.876Z,99615.31
2022-12-09T23:42:58.596Z,99614.28
2022-12-09T23:45:02.738Z,99618.91
2022-12-09T23:47:05.593Z,99617.44
2022-12-09T23:49:08.911Z,99619.91
2022-12-09T23:51:12.909Z,99619.00
2022-12-09T23:53:15.746Z,99620.63
2022-12-09T23:55:18.593Z,99618.91
2022-12-09T23:57:21.418Z,99613.66
2022-12-09T23:59:24.361Z,99616.47
